Time;durP1;ratioP1;P1;durP2;ratioP2;P2;SDS_P1;SDS_P2;PMS_P1;PMS_P2;Temp;Humidity;BMP_temperature;BMP_pressure;BME280_temperature;BME280_humidity;BME280_pressure;Samples;Min_cycle;Max_cycle;Signal;HPM_P1;HPM_P2
2022/08/23 00:02:05;;;;;;;;;;;25.10;45.30;;;;;;5051585;28;19963;-58
2022/08/23 00:04:34;;;;;;;;;;;25.10;45.40;;;;;;5079022;28;19921;-59
2022/08/23 00:07:01;;;;;;;;;;;25.10;45.40;;;;;;5067079;28;19920;-58
2022/08/23 00:09:28;;;;;;;;;;;25.10;45.40;;;;;;5071391;28;19928;-59
2022/08/23 00:11:55;;;;;;;;;;;25.10;45.40;;;;;;5067331;28;19921;-58
2022/08/23 00:14:23;;;;;;;;;;;25.10;45.40;;;;;;5083761;28;19920;-59
2022/08/23 00:16:50;;;;;;;;;;;25.10;45.40;;;;;;5082253;28;19956;-58
2022/08/23 00:19:17;;;;;;;;;;;25.10;45.40;;;;;;5051447;28;19920;-58
2022/08/23 00:21:45;;;;;;;;;;;25.00;45.40;;;;;;5053315;28;19921;-61
2022/08/23 00:24:12;;;;;;;;;;;25.00;45.50;;;;;;5076148;28;19921;-59
2022/08/23 00:26:49;;;;;;;;;;;25.00;45.40;;;;;;5069764;28;19924;-59
2022/08/23 00:29:15;;;;;;;;;;;25.00;45.50;;;;;;5082512;28;20269;-59
2022/08/23 00:31:42;;;;;;;;;;;25.00;45.50;;;;;;5074633;28;19920;-58
2022/08/23 00:34:09;;;;;;;;;;;25.00;45.50;;;;;;5073259;28;19921;-59
2022/08/23 00:36:37;;;;;;;;;;;25.00;45.50;;;;;;5087700;28;19924;-59
2022/08/23 00:39:05;;;;;;;;;;;25.00;45.50;;;;;;5065038;28;19978;-58
2022/08/23 00:41:31;;;;;;;;;;;24.90;45.50;;;;;;5069032;28;19943;-58
2022/08/23 00:49:27;;;;;;;;;;;24.90;45.60;;;;;;5054251;28;19928;-59
2022/08/23 00:51:56;;;;;;;;;;;24.90;45.60;;;;;;5054740;28;20024;-58
2022/08/23 00:54:26;;;;;;;;;;;24.90;45.60;;;;;;5070885;28;19920;-59
2022/08/23 00:56:52;;;;;;;;;;;24.90;45.60;;;;;;5086177;28;19920;-58
2022/08/23 00:59:20;;;;;;;;;;;24.90;45.70;;;;;;5067555;28;19928;-58
2022/08/23 01:01:47;;;;;;;;;;;24.90;45.70;;;;;;5067955;28;19927;-59
2022/08/23 01:04:15;;;;;;;;;;;24.90;45.80;;;;;;5064257;28;19921;-59
2022/08/23 01:06:42;;;;;;;;;;;24.90;45.70;;;;;;5085572;28;19927;-58
2022/08/23 01:09:11;;;;;;;;;;;24.90;45.80;;;;;;5067287;28;20304;-58
2022/08/23 01:11:43;;;;;;;;;;;24.80;45.70;;;;;;5082931;28;20003;-59
2022/08/23 01:14:12;;;;;;;;;;;24.90;45.80;;;;;;5079986;28;19921;-58
2022/08/23 01:16:39;;;;;;;;;;;24.90;45.80;;;;;;5067386;28;19943;-58
2022/08/23 01:19:08;;;;;;;;;;;24.90;45.80;;;;;;5074234;28;19920;-58
2022/08/23 01:21:37;;;;;;;;;;;24.80;45.80;;;;;;5059282;28;19920;-58
2022/08/23 01:24:06;;;;;;;;;;;24.80;45.80;;;;;;5071015;28;19960;-58
2022/08/23 01:26:34;;;;;;;;;;;24.80;45.90;;;;;;5058931;28;19920;-58
2022/08/23 01:29:01;;;;;;;;;;;24.80;45.90;;;;;;5080130;28;19931;-59
2022/08/23 01:31:27;;;;;;;;;;;24.80;46.00;;;;;;5067120;28;19920;-58
2022/08/23 01:33:55;;;;;;;;;;;24.80;46.00;;;;;;5049850;28;19947;-59
2022/08/23 01:36:22;;;;;;;;;;;24.80;46.00;;;;;;5086933;28;19989;-59
2022/08/23 01:38:51;;;;;;;;;;;24.80;46.00;;;;;;5079129;28;19924;-58
2022/08/23 01:41:20;;;;;;;;;;;24.80;46.00;;;;;;5065145;28;19963;-57
2022/08/23 01:43:46;;;;;;;;;;;24.80;46.10;;;;;;5067604;28;19920;-58
2022/08/23 01:46:14;;;;;;;;;;;24.80;46.10;;;;;;5064992;28;19921;-59
2022/08/23 01:48:40;;;;;;;;;;;24.80;46.10;;;;;;5066387;28;19925;-59
2022/08/23 01:51:08;;;;;;;;;;;24.80;46.20;;;;;;5081321;28;19965;-58
2022/08/23 01:53:35;;;;;;;;;;;24.70;46.10;;;;;;5081540;28;19921;-59
2022/08/23 01:56:01;;;;;;;;;;;24.70;46.20;;;;;;5083229;28;19995;-58
2022/08/23 01:58:33;;;;;;;;;;;24.70;46.20;;;;;;5075095;28;20234;-58
2022/08/23 02:01:00;;;;;;;;;;;24.70;46.20;;;;;;5109228;28;20243;-59
2022/08/23 02:03:27;;;;;;;;;;;24.70;46.20;;;;;;5074479;28;19927;-58
2022/08/23 02:05:56;;;;;;;;;;;24.70;46.20;;;;;;5061379;28;20011;-59
2022/08/23 02:11:07;;;;;;;;;;;24.70;46.30;;;;;;5084533;28;19920;-58
2022/08/23 02:13:36;;;;;;;;;;;24.70;46.30;;;;;;5090650;28;19920;-58
2022/08/23 02:16:03;;;;;;;;;;;24.70;46.30;;;;;;5068821;28;19920;-58
2022/08/23 02:18:30;;;;;;;;;;;24.60;46.20;;;;;;5054543;28;19928;-58
2022/08/23 02:20:56;;;;;;;;;;;24.70;46.40;;;;;;5057324;28;20084;-59
2022/08/23 02:23:23;;;;;;;;;;;24.60;46.30;;;;;;5064238;28;19952;-58
2022/08/23 02:25:51;;;;;;;;;;;24.60;46.30;;;;;;5058829;28;19932;-59
2022/08/23 02:28:18;;;;;;;;;;;24.70;46.40;;;;;;5076931;28;19959;-59
2022/08/23 02:30:46;;;;;;;;;;;24.60;46.40;;;;;;5072622;28;19920;-58
2022/08/23 02:33:12;;;;;;;;;;;24.70;46.50;;;;;;5073207;28;19971;-59
2022/08/23 02:35:40;;;;;;;;;;;24.60;46.40;;;;;;5071473;28;19970;-58
2022/08/23 02:38:07;;;;;;;;;;;24.60;46.40;;;;;;5059044;28;19921;-58
2022/08/23 02:40:37;;;;;;;;;;;24.60;46.40;;;;;;5056142;28;19927;-58
2022/08/23 02:43:04;;;;;;;;;;;24.60;46.40;;;;;;5067792;28;19921;-58
2022/08/23 02:45:31;;;;;;;;;;;24.60;46.50;;;;;;5071393;28;19925;-59
2022/08/23 02:48:00;;;;;;;;;;;24.60;46.50;;;;;;5071385;28;19920;-59
2022/08/23 02:50:27;;;;;;;;;;;24.60;46.50;;;;;;5054240;28;20011;-59
2022/08/23 02:52:54;;;;;;;;;;;24.60;46.50;;;;;;5071789;28;19928;-59
2022/08/23 02:55:20;;;;;;;;;;;24.60;46.60;;;;;;5091028;28;20035;-58
2022/08/23 02:57:47;;;;;;;;;;;24.60;46.50;;;;;;5075875;28;20007;-59
2022/08/23 03:00:14;;;;;;;;;;;24.60;46.60;;;;;;5076492;28;19928;-59
2022/08/23 03:02:41;;;;;;;;;;;24.60;46.60;;;;;;5091100;28;19928;-58
2022/08/23 03:05:09;;;;;;;;;;;24.60;46.60;;;;;;5069809;28;19924;-58
2022/08/23 03:07:36;;;;;;;;;;;24.60;46.60;;;;;;5052847;28;20328;-59
2022/08/23 03:10:03;;;;;;;;;;;24.60;46.60;;;;;;5073164;28;19928;-59
2022/08/23 03:12:30;;;;;;;;;;;24.60;46.60;;;;;;5064226;28;19921;-59
2022/08/23 03:14:57;;;;;;;;;;;24.60;46.70;;;;;;5088838;28;19927;-58
2022/08/23 03:17:24;;;;;;;;;;;24.60;46.70;;;;;;5069518;28;20277;-58
2022/08/23 03:19:51;;;;;;;;;;;24.60;46.70;;;;;;5070359;28;19931;-57
2022/08/23 03:22:21;;;;;;;;;;;24.60;46.70;;;;;;5073161;28;20328;-58
2022/08/23 03:24:48;;;;;;;;;;;24.50;46.60;;;;;;5074574;28;19920;-58
2022/08/23 03:27:15;;;;;;;;;;;24.60;46.70;;;;;;5072282;28;19947;-57
2022/08/23 03:29:42;;;;;;;;;;;24.60;46.70;;;;;;5082942;28;19927;-59
2022/08/23 03:32:09;;;;;;;;;;;24.50;46.70;;;;;;5082449;28;19926;-59
2022/08/23 03:34:36;;;;;;;;;;;24.50;46.70;;;;;;5071351;28;19932;-58
2022/08/23 03:37:02;;;;;;;;;;;24.60;46.70;;;;;;5072010;28;19927;-59
2022/08/23 03:39:31;;;;;;;;;;;24.50;46.70;;;;;;5106651;28;19969;-59
2022/08/23 03:41:57;;;;;;;;;;;24.50;46.70;;;;;;5075209;28;19927;-59
2022/08/23 03:44:24;;;;;;;;;;;24.50;46.70;;;;;;5071641;28;19974;-58
2022/08/23 03:46:54;;;;;;;;;;;24.50;46.70;;;;;;5071816;28;19934;-58
2022/08/23 03:49:21;;;;;;;;;;;24.50;46.80;;;;;;5090068;28;19920;-58
2022/08/23 03:51:47;;;;;;;;;;;24.50;46.80;;;;;;5069490;28;19924;-58
2022/08/23 03:54:14;;;;;;;;;;;24.50;46.80;;;;;;5068545;28;19927;-58
2022/08/23 03:56:51;;;;;;;;;;;24.50;46.80;;;;;;5054052;28;19920;-57
2022/08/23 03:59:17;;;;;;;;;;;24.50;47.40;;;;;;5054513;28;19982;-59
2022/08/23 04:01:44;;;;;;;;;;;24.50;46.80;;;;;;5069420;28;19927;-59
2022/08/23 04:04:11;;;;;;;;;;;24.50;46.90;;;;;;5086408;28;19966;-59
2022/08/23 04:06:38;;;;;;;;;;;24.50;46.90;;;;;;5056715;28;19924;-59
2022/08/23 04:09:04;;;;;;;;;;;24.50;46.90;;;;;;5075342;28;19927;-59
2022/08/23 04:11:31;;;;;;;;;;;24.50;46.90;;;;;;5081157;28;19920;-60
2022/08/23 04:13:59;;;;;;;;;;;24.50;46.90;;;;;;5058226;28;19959;-59
2022/08/23 04:16:27;;;;;;;;;;;24.50;46.90;;;;;;5078840;28;19944;-58
2022/08/23 04:18:54;;;;;;;;;;;24.50;47.00;;;;;;5074499;28;19920;-58
2022/08/23 04:21:21;;;;;;;;;;;24.50;47.00;;;;;;5103286;28;19924;-60
2022/08/23 04:23:48;;;;;;;;;;;24.50;47.00;;;;;;5059435;28;19920;-59
2022/08/23 04:26:15;;;;;;;;;;;24.50;47.00;;;;;;5070504;28;19928;-59
2022/08/23 04:28:42;;;;;;;;;;;24.50;47.00;;;;;;5080326;28;20034;-58
2022/08/23 04:31:10;;;;;;;;;;;24.50;47.00;;;;;;5074468;28;19959;-59
2022/08/23 04:33:36;;;;;;;;;;;24.50;47.00;;;;;;5083193;28;19920;-58
2022/08/23 04:36:03;;;;;;;;;;;24.50;47.10;;;;;;5085764;28;19928;-59
2022/08/23 04:38:30;;;;;;;;;;;24.40;47.00;;;;;;5071255;28;20250;-59
2022/08/23 04:43:42;;;;;;;;;;;24.40;47.00;;;;;;5066338;28;19920;-58
2022/08/23 04:46:13;;;;;;;;;;;24.40;47.00;;;;;;5049617;28;19921;-59
2022/08/23 04:48:40;;;;;;;;;;;24.40;47.10;;;;;;5064123;28;19925;-59
2022/08/23 04:51:06;;;;;;;;;;;24.40;47.10;;;;;;5052370;28;19921;-59
2022/08/23 04:53:34;;;;;;;;;;;24.40;47.10;;;;;;5060889;28;19924;-59
2022/08/23 04:56:01;;;;;;;;;;;24.40;47.10;;;;;;5086355;28;19921;-58
2022/08/23 04:58:27;;;;;;;;;;;24.40;47.10;;;;;;5070763;28;20019;-59
2022/08/23 05:00:54;;;;;;;;;;;24.40;47.20;;;;;;5078282;28;19920;-60
2022/08/23 05:03:22;;;;;;;;;;;24.40;47.20;;;;;;5070219;28;19920;-59
2022/08/23 05:05:49;;;;;;;;;;;24.40;47.20;;;;;;5088324;28;19927;-58
2022/08/23 05:08:17;;;;;;;;;;;24.40;47.20;;;;;;5080235;28;19924;-58
2022/08/23 05:10:43;;;;;;;;;;;24.40;47.30;;;;;;5077810;28;20258;-58
2022/08/23 05:13:10;;;;;;;;;;;24.40;47.30;;;;;;5065683;28;19925;-59
2022/08/23 05:15:37;;;;;;;;;;;24.40;47.30;;;;;;5066164;28;19924;-59
2022/08/23 05:18:03;;;;;;;;;;;24.40;47.30;;;;;;5053684;28;19932;-58
2022/08/23 05:20:32;;;;;;;;;;;24.40;47.30;;;;;;5052667;28;19950;-59
2022/08/23 05:22:59;;;;;;;;;;;24.40;47.30;;;;;;5075072;28;19925;-59
2022/08/23 05:25:48;;;;;;;;;;;24.40;47.30;;;;;;5052088;28;19920;-59
2022/08/23 05:28:13;;;;;;;;;;;24.40;47.30;;;;;;5062463;28;19920;-59
2022/08/23 05:30:40;;;;;;;;;;;24.40;47.30;;;;;;5073676;28;19924;-59
2022/08/23 05:33:07;;;;;;;;;;;24.40;47.40;;;;;;5094324;28;19927;-59
2022/08/23 05:35:35;;;;;;;;;;;24.40;47.40;;;;;;5071388;28;19921;-58
2022/08/23 05:38:03;;;;;;;;;;;24.30;47.40;;;;;;5060779;28;19927;-59
2022/08/23 05:40:30;;;;;;;;;;;24.40;47.40;;;;;;5069506;28;19921;-58
2022/08/23 05:42:56;;;;;;;;;;;24.40;47.40;;;;;;5082808;28;19975;-59
2022/08/23 05:45:23;;;;;;;;;;;24.40;47.40;;;;;;5067090;28;19956;-59
2022/08/23 05:47:50;;;;;;;;;;;24.40;47.40;;;;;;5072552;28;19920;-59
2022/08/23 05:50:17;;;;;;;;;;;24.40;47.50;;;;;;5075103;28;19920;-59
2022/08/23 05:52:49;;;;;;;;;;;24.40;47.50;;;;;;5053259;28;19932;-59
2022/08/23 05:55:16;;;;;;;;;;;24.40;47.50;;;;;;5068009;28;19927;-59
2022/08/23 05:57:46;;;;;;;;;;;24.30;47.40;;;;;;5085697;28;19920;-59
2022/08/23 06:00:14;;;;;;;;;;;24.30;47.40;;;;;;5070118;28;19932;-59
2022/08/23 06:02:40;;;;;;;;;;;24.40;47.50;;;;;;5075268;28;19970;-58
2022/08/23 06:05:07;;;;;;;;;;;24.40;47.60;;;;;;5090592;28;19928;-58
2022/08/23 06:07:34;;;;;;;;;;;24.30;47.50;;;;;;5070200;28;19978;-59
2022/08/23 06:10:02;;;;;;;;;;;24.30;47.50;;;;;;5073331;28;19974;-59
2022/08/23 06:12:30;;;;;;;;;;;24.40;47.60;;;;;;5074834;28;19921;-59
2022/08/23 06:15:00;;;;;;;;;;;24.30;47.50;;;;;;5066739;28;20007;-59
2022/08/23 06:17:27;;;;;;;;;;;24.30;47.50;;;;;;5079236;28;19920;-59
2022/08/23 06:19:53;;;;;;;;;;;24.30;47.50;;;;;;5055964;28;19920;-60
2022/08/23 06:22:20;;;;;;;;;;;24.40;47.60;;;;;;5069238;28;19921;-60
2022/08/23 06:24:47;;;;;;;;;;;24.30;47.50;;;;;;5070240;28;19924;-60
2022/08/23 06:27:15;;;;;;;;;;;24.30;47.60;;;;;;5055400;28;19924;-58
2022/08/23 06:29:42;;;;;;;;;;;24.40;47.70;;;;;;5084194;28;19920;-59
2022/08/23 06:32:09;;;;;;;;;;;24.30;47.60;;;;;;5065561;28;20445;-60
2022/08/23 06:34:36;;;;;;;;;;;24.30;47.60;;;;;;5075589;28;19931;-60
2022/08/23 06:37:03;;;;;;;;;;;24.40;47.70;;;;;;5065716;28;19921;-59
2022/08/23 06:39:31;;;;;;;;;;;24.30;47.60;;;;;;5076756;28;19927;-59
2022/08/23 06:41:59;;;;;;;;;;;24.30;47.70;;;;;;5086154;28;20337;-59
2022/08/23 06:44:27;;;;;;;;;;;24.40;47.80;;;;;;5070645;28;19927;-59
2022/08/23 06:46:56;;;;;;;;;;;24.40;47.80;;;;;;5085423;28;19925;-59
2022/08/23 06:49:23;;;;;;;;;;;24.30;47.70;;;;;;5072416;28;19921;-59
2022/08/23 06:51:50;;;;;;;;;;;24.30;47.80;;;;;;5069720;28;19920;-59
2022/08/23 06:54:18;;;;;;;;;;;24.30;47.80;;;;;;5067222;28;20373;-60
2022/08/23 06:56:44;;;;;;;;;;;24.30;47.80;;;;;;5067083;28;19925;-60
2022/08/23 06:59:11;;;;;;;;;;;24.30;47.80;;;;;;5070480;28;19960;-60
2022/08/23 07:01:40;;;;;;;;;;;24.30;48.00;;;;;;5048698;28;19974;-60
2022/08/23 07:04:07;;;;;;;;;;;24.30;48.00;;;;;;5058386;28;20375;-59
2022/08/23 07:06:34;;;;;;;;;;;24.30;48.00;;;;;;5078526;28;19943;-59
2022/08/23 07:09:00;;;;;;;;;;;24.30;48.00;;;;;;5064227;28;20036;-59
2022/08/23 07:11:30;;;;;;;;;;;24.30;48.10;;;;;;5064213;28;19974;-59
2022/08/23 07:13:57;;;;;;;;;;;24.30;48.10;;;;;;5066829;28;19931;-58
2022/08/23 07:16:24;;;;;;;;;;;24.20;48.20;;;;;;5061452;28;19925;-58
2022/08/23 07:18:54;;;;;;;;;;;24.20;48.30;;;;;;5064836;28;19952;-59
2022/08/23 07:21:21;;;;;;;;;;;24.20;48.30;;;;;;5069368;28;19920;-59
2022/08/23 07:23:47;;;;;;;;;;;24.20;48.30;;;;;;5070971;28;19928;-59
2022/08/23 07:26:14;;;;;;;;;;;24.20;48.20;;;;;;5060653;28;20018;-59
2022/08/23 07:28:43;;;;;;;;;;;24.20;48.30;;;;;;5063712;28;19924;-59
2022/08/23 07:31:10;;;;;;;;;;;24.20;48.40;;;;;;5067753;28;20015;-59
2022/08/23 07:33:37;;;;;;;;;;;24.20;48.30;;;;;;5059109;28;19920;-59
2022/08/23 07:36:06;;;;;;;;;;;24.20;48.30;;;;;;5062481;28;20270;-58
2022/08/23 07:38:34;;;;;;;;;;;24.20;48.20;;;;;;5066607;28;19924;-59
2022/08/23 07:41:00;;;;;;;;;;;24.20;48.20;;;;;;5068882;28;19954;-59
2022/08/23 07:43:27;;;;;;;;;;;24.20;48.20;;;;;;5067205;28;20304;-58
2022/08/23 07:45:54;;;;;;;;;;;24.20;48.10;;;;;;5063392;28;20630;-59
2022/08/23 07:48:20;;;;;;;;;;;24.20;48.10;;;;;;5068921;28;19921;-60
2022/08/23 07:50:51;;;;;;;;;;;24.20;48.10;;;;;;5060055;28;19925;-59
2022/08/23 07:53:19;;;;;;;;;;;24.20;48.10;;;;;;5078180;28;19931;-59
2022/08/23 07:55:46;;;;;;;;;;;24.20;48.10;;;;;;5078901;28;20001;-60
2022/08/23 07:58:12;;;;;;;;;;;24.20;48.10;;;;;;5065597;28;19920;-60
2022/08/23 08:00:39;;;;;;;;;;;24.20;48.10;;;;;;5064327;28;19924;-59
2022/08/23 08:03:08;;;;;;;;;;;24.30;48.10;;;;;;5082290;28;19925;-58
2022/08/23 08:05:34;;;;;;;;;;;24.30;48.10;;;;;;5081062;28;19928;-58
2022/08/23 08:08:01;;;;;;;;;;;24.30;48.10;;;;;;5081265;28;20019;-58
2022/08/23 08:10:29;;;;;;;;;;;24.30;48.10;;;;;;5076638;28;19975;-58
2022/08/23 08:12:56;;;;;;;;;;;24.30;48.00;;;;;;5067823;28;19938;-59
2022/08/23 08:15:23;;;;;;;;;;;24.30;48.00;;;;;;5068555;28;19920;-60
2022/08/23 08:17:50;;;;;;;;;;;24.30;48.00;;;;;;5084351;28;20365;-59
2022/08/23 08:20:16;;;;;;;;;;;24.30;47.90;;;;;;5068450;28;19971;-58
2022/08/23 08:22:44;;;;;;;;;;;24.30;47.90;;;;;;5069118;28;19928;-59
2022/08/23 08:25:11;;;;;;;;;;;24.30;47.90;;;;;;5082811;28;20010;-59
2022/08/23 08:27:40;;;;;;;;;;;24.30;47.90;;;;;;5064327;28;20034;-57
2022/08/23 08:30:07;;;;;;;;;;;24.30;47.80;;;;;;5063944;28;19976;-59
2022/08/23 08:32:34;;;;;;;;;;;24.30;47.90;;;;;;5060560;28;19931;-58
2022/08/23 08:35:01;;;;;;;;;;;24.30;47.80;;;;;;5072702;28;19928;-59
2022/08/23 08:37:27;;;;;;;;;;;24.40;47.80;;;;;;5080559;28;19932;-60
2022/08/23 08:39:54;;;;;;;;;;;24.40;47.70;;;;;;5065671;28;19978;-58
2022/08/23 08:42:25;;;;;;;;;;;24.40;47.70;;;;;;5066605;28;19929;-59
2022/08/23 08:44:54;;;;;;;;;;;24.40;47.70;;;;;;5082873;28;20377;-58
2022/08/23 08:47:23;;;;;;;;;;;24.40;47.70;;;;;;5064418;28;20419;-58
2022/08/23 08:49:51;;;;;;;;;;;24.40;47.60;;;;;;5064633;28;20015;-58
2022/08/23 08:52:18;;;;;;;;;;;24.40;47.60;;;;;;5067101;28;20005;-58
2022/08/23 08:54:45;;;;;;;;;;;24.40;47.50;;;;;;5085739;28;19967;-58
2022/08/23 08:57:12;;;;;;;;;;;24.40;47.50;;;;;;5065862;28;19946;-59
2022/08/23 08:59:42;;;;;;;;;;;24.40;47.40;;;;;;5068931;28;19920;-58
2022/08/23 09:02:11;;;;;;;;;;;24.40;47.40;;;;;;5082532;28;19967;-57
2022/08/23 09:04:38;;;;;;;;;;;24.40;47.40;;;;;;5071937;28;19928;-57
2022/08/23 09:07:08;;;;;;;;;;;24.40;47.40;;;;;;5072469;28;19920;-58
2022/08/23 09:09:42;;;;;;;;;;;24.40;47.40;;;;;;5073119;28;20032;-58
2022/08/23 09:12:21;;;;;;;;;;;24.40;47.30;;;;;;5086410;28;19929;-58
2022/08/23 09:14:52;;;;;;;;;;;24.40;47.30;;;;;;5079240;28;19982;-58
2022/08/23 09:17:21;;;;;;;;;;;24.40;47.30;;;;;;5071018;28;19928;-58
2022/08/23 09:19:50;;;;;;;;;;;24.50;47.40;;;;;;5085508;28;20015;-58
2022/08/23 09:22:18;;;;;;;;;;;24.50;47.40;;;;;;5086038;28;19924;-57
2022/08/23 09:24:45;;;;;;;;;;;24.50;47.40;;;;;;5071230;28;19927;-57
2022/08/23 09:27:12;;;;;;;;;;;24.50;47.40;;;;;;5073287;28;19974;-58
2022/08/23 09:29:40;;;;;;;;;;;24.50;47.40;;;;;;5087969;28;19932;-58
2022/08/23 09:32:16;;;;;;;;;;;24.50;47.40;;;;;;5072549;28;19924;-58
2022/08/23 09:34:44;;;;;;;;;;;24.50;47.30;;;;;;5085536;28;19920;-58
2022/08/23 09:37:13;;;;;;;;;;;24.50;47.30;;;;;;5088096;28;19925;-58
2022/08/23 09:39:41;;;;;;;;;;;24.50;46.90;;;;;;5085337;28;19927;-58
2022/08/23 09:42:11;;;;;;;;;;;24.50;47.40;;;;;;5089163;28;19966;-58
2022/08/23 09:44:38;;;;;;;;;;;24.50;47.30;;;;;;5081400;28;19920;-58
2022/08/23 09:47:08;;;;;;;;;;;24.50;47.30;;;;;;5088270;28;19948;-59
2022/08/23 09:49:35;;;;;;;;;;;24.50;47.30;;;;;;5087629;28;19939;-58
2022/08/23 09:52:09;;;;;;;;;;;24.50;47.30;;;;;;5071823;28;19970;-58
2022/08/23 09:54:36;;;;;;;;;;;24.60;47.40;;;;;;5071903;28;19924;-58
2022/08/23 09:57:04;;;;;;;;;;;24.60;47.30;;;;;;5073777;28;19956;-57
2022/08/23 09:59:34;;;;;;;;;;;24.60;47.30;;;;;;5078660;28;20274;-58
2022/08/23 10:02:01;;;;;;;;;;;24.50;47.20;;;;;;5071213;28;19927;-58
2022/08/23 10:04:31;;;;;;;;;;;24.60;47.30;;;;;;5065936;28;19924;-59
2022/08/23 10:06:58;;;;;;;;;;;24.60;47.30;;;;;;5060478;28;19932;-59
2022/08/23 10:09:33;;;;;;;;;;;24.60;47.30;;;;;;5087075;28;19959;-60
2022/08/23 10:12:00;;;;;;;;;;;24.60;47.20;;;;;;5082913;28;20366;-59
2022/08/23 10:14:27;;;;;;;;;;;24.60;47.20;;;;;;5070274;28;19932;-59
2022/08/23 10:16:58;;;;;;;;;;;24.60;47.20;;;;;;5068795;28;20338;-59
2022/08/23 10:19:39;;;;;;;;;;;24.60;47.20;;;;;;5039236;23;19960;-59
2022/08/23 10:22:08;;;;;;;;;;;24.60;47.20;;;;;;5028958;28;19928;-59
2022/08/23 10:24:39;;;;;;;;;;;24.60;47.10;;;;;;5026312;28;19922;-59
2022/08/23 10:30:02;;;;;;;;;;;24.60;47.10;;;;;;5029037;28;20031;-58
2022/08/23 10:32:33;;;;;;;;;;;24.60;47.00;;;;;;5031192;28;19925;-59
2022/08/23 10:35:03;;;;;;;;;;;24.60;46.90;;;;;;5026843;28;19921;-60
2022/08/23 10:37:35;;;;;;;;;;;24.70;46.90;;;;;;5035909;28;20373;-59
2022/08/23 10:40:07;;;;;;;;;;;24.70;46.90;;;;;;5057142;28;19928;-59
2022/08/23 10:42:36;;;;;;;;;;;24.70;46.80;;;;;;5027512;28;19932;-59
2022/08/23 10:45:04;;;;;;;;;;;24.70;46.70;;;;;;5027156;28;20019;-60
2022/08/23 10:47:35;;;;;;;;;;;24.60;46.70;;;;;;5029432;28;19921;-60
2022/08/23 10:50:04;;;;;;;;;;;24.70;46.70;;;;;;5027801;28;19960;-58
2022/08/23 10:52:32;;;;;;;;;;;24.70;46.70;;;;;;5034021;28;20015;-59
2022/08/23 10:55:04;;;;;;;;;;;24.70;46.20;;;;;;5051284;28;19921;-58
2022/08/23 10:57:33;;;;;;;;;;;24.70;46.10;;;;;;5052454;28;19921;-58
2022/08/23 11:00:01;;;;;;;;;;;24.70;46.00;;;;;;5030099;28;19972;-58
2022/08/23 11:02:30;;;;;;;;;;;24.70;45.80;;;;;;5021171;28;19921;-59
2022/08/23 11:05:08;;;;;;;;;;;24.70;45.80;;;;;;5025593;28;19925;-59
2022/08/23 11:07:35;;;;;;;;;;;24.70;45.80;;;;;;5029822;28;19960;-58
2022/08/23 11:10:09;;;;;;;;;;;24.60;45.50;;;;;;5021562;28;19929;-59
2022/08/23 11:12:53;;;;;;;;;;;24.70;45.70;;;;;;5025781;28;19975;-58
2022/08/23 11:15:24;;;;;;;;;;;24.70;45.60;;;;;;5046448;28;19971;-58
2022/08/23 11:17:55;;;;;;;;;;;24.70;45.60;;;;;;5031236;28;19921;-59
2022/08/23 11:20:41;;;;;;;;;;;24.70;45.50;;;;;;5046122;28;19955;-58
2022/08/23 11:23:11;;;;;;;;;;;24.70;45.50;;;;;;5030455;28;20004;-59
2022/08/23 11:25:39;;;;;;;;;;;24.70;45.40;;;;;;5029899;28;19921;-59
2022/08/23 11:28:20;;;;;;;;;;;24.70;45.30;;;;;;5023405;28;19967;-58
2022/08/23 11:30:49;;;;;;;;;;;24.70;45.30;;;;;;5029407;28;19924;-59
2022/08/23 11:33:17;;;;;;;;;;;24.70;45.40;;;;;;5031168;28;19921;-59
2022/08/23 11:35:44;;;;;;;;;;;24.70;45.40;;;;;;5031020;28;19921;-58
2022/08/23 11:38:11;;;;;;;;;;;24.70;45.40;;;;;;5027700;28;19921;-58
2022/08/23 11:41:02;;;;;;;;;;;24.70;45.50;;;;;;5028462;28;19944;-58
2022/08/23 11:43:30;;;;;;;;;;;24.70;46.00;;;;;;5017044;28;19933;-58
2022/08/23 11:46:12;;;;;;;;;;;24.70;45.40;;;;;;5022762;28;20000;-58
2022/08/23 11:48:41;;;;;;;;;;;24.70;45.50;;;;;;5026356;28;19931;-58
2022/08/23 11:51:12;;;;;;;;;;;24.80;45.50;;;;;;5022156;28;19921;-59
2022/08/23 11:53:50;;;;;;;;;;;24.80;45.40;;;;;;5027611;28;19968;-59
2022/08/23 11:56:30;;;;;;;;;;;24.80;44.80;;;;;;5022435;28;19921;-59
2022/08/23 11:59:01;;;;;;;;;;;24.80;44.10;;;;;;5018146;28;20312;-58
2022/08/23 12:01:30;;;;;;;;;;;24.80;43.80;;;;;;5019618;28;19925;-59
2022/08/23 12:04:00;;;;;;;;;;;24.80;43.90;;;;;;5027583;28;19933;-59
2022/08/23 12:06:44;;;;;;;;;;;24.80;44.00;;;;;;5021518;28;19921;-59
2022/08/23 12:09:12;;;;;;;;;;;24.80;43.80;;;;;;5024928;28;19925;-58
2022/08/23 12:11:58;;;;;;;;;;;24.80;43.90;;;;;;5027145;28;19929;-59
2022/08/23 12:14:32;;;;;;;;;;;24.80;44.10;;;;;;5023471;28;19921;-59
2022/08/23 12:16:59;;;;;;;;;;;24.80;43.90;;;;;;5030433;28;19995;-58
2022/08/23 12:19:34;;;;;;;;;;;24.80;43.80;;;;;;5026020;28;19929;-58
2022/08/23 12:22:05;;;;;;;;;;;24.80;43.60;;;;;;5028025;28;19921;-59
2022/08/23 12:24:33;;;;;;;;;;;24.80;43.60;;;;;;5027899;28;20018;-58
2022/08/23 12:27:01;;;;;;;;;;;24.80;43.20;;;;;;5026205;28;19933;-59
2022/08/23 12:29:32;;;;;;;;;;;24.80;43.10;;;;;;5025567;28;19924;-59
2022/08/23 12:32:01;;;;;;;;;;;24.80;43.20;;;;;;5022209;28;19947;-58
2022/08/23 12:34:32;;;;;;;;;;;24.80;42.00;;;;;;5024300;28;19921;-59
2022/08/23 12:37:00;;;;;;;;;;;24.90;42.80;;;;;;5023875;28;19925;-59
2022/08/23 12:39:27;;;;;;;;;;;24.90;42.20;;;;;;5023850;28;19966;-60
2022/08/23 12:41:57;;;;;;;;;;;24.90;42.20;;;;;;5042795;28;19928;-60
2022/08/23 12:44:25;;;;;;;;;;;24.90;42.30;;;;;;5027103;28;19921;-60
2022/08/23 12:46:51;;;;;;;;;;;24.90;42.30;;;;;;5024427;28;19991;-60
2022/08/23 12:49:25;;;;;;;;;;;24.90;42.50;;;;;;5027096;28;20137;-60
2022/08/23 12:51:54;;;;;;;;;;;24.90;42.50;;;;;;5040894;28;20430;-59
2022/08/23 12:54:22;;;;;;;;;;;24.90;42.30;;;;;;5052554;28;20270;-59
2022/08/23 12:56:49;;;;;;;;;;;24.90;42.10;;;;;;5024919;28;19956;-59
2022/08/23 12:59:33;;;;;;;;;;;24.90;42.50;;;;;;5025964;28;19932;-59
2022/08/23 13:02:00;;;;;;;;;;;24.90;42.50;;;;;;5038846;28;19933;-60
2022/08/23 13:04:27;;;;;;;;;;;24.90;42.50;;;;;;5028141;28;19925;-60
2022/08/23 13:06:56;;;;;;;;;;;24.90;42.50;;;;;;5027633;28;19931;-59
2022/08/23 13:09:24;;;;;;;;;;;24.90;42.40;;;;;;5026720;28;20310;-59
2022/08/23 13:11:51;;;;;;;;;;;25.00;42.30;;;;;;5025783;28;19929;-59
2022/08/23 13:14:25;;;;;;;;;;;24.90;42.20;;;;;;5027809;28;19950;-59
2022/08/23 13:16:52;;;;;;;;;;;25.00;42.30;;;;;;5021918;28;19968;-59
2022/08/23 13:19:21;;;;;;;;;;;25.00;42.00;;;;;;5025050;28;19926;-59
2022/08/23 13:21:47;;;;;;;;;;;25.00;42.10;;;;;;5022283;28;19932;-59
2022/08/23 13:24:30;;;;;;;;;;;25.00;42.20;;;;;;5026745;28;19945;-60
2022/08/23 13:27:09;;;;;;;;;;;25.00;42.20;;;;;;5025312;28;19925;-60
2022/08/23 13:29:39;;;;;;;;;;;25.00;42.10;;;;;;5027941;28;19922;-59
2022/08/23 13:32:06;;;;;;;;;;;25.00;41.50;;;;;;5021740;28;20075;-59
2022/08/23 13:34:41;;;;;;;;;;;25.00;41.60;;;;;;5028074;28;20363;-59
2022/08/23 13:37:15;;;;;;;;;;;25.00;41.50;;;;;;5024557;28;19925;-59
2022/08/23 13:39:46;;;;;;;;;;;25.10;41.90;;;;;;5037247;28;20008;-59
2022/08/23 13:42:12;;;;;;;;;;;25.00;41.60;;;;;;5025270;28;19968;-59
2022/08/23 13:44:39;;;;;;;;;;;25.10;41.80;;;;;;5024140;28;19927;-60
2022/08/23 13:47:06;;;;;;;;;;;25.10;41.70;;;;;;5056817;28;19975;-59
2022/08/23 13:49:33;;;;;;;;;;;25.10;41.60;;;;;;5029150;28;19978;-59
2022/08/23 13:52:03;;;;;;;;;;;25.00;41.30;;;;;;5027969;28;20350;-58
2022/08/23 13:54:32;;;;;;;;;;;25.10;41.00;;;;;;5025270;28;19921;-60
2022/08/23 13:57:01;;;;;;;;;;;25.10;41.40;;;;;;5021853;28;19921;-60
2022/08/23 13:59:28;;;;;;;;;;;25.10;41.40;;;;;;5025140;28;19932;-60
2022/08/23 14:01:55;;;;;;;;;;;25.10;41.50;;;;;;5031659;28;20417;-59
2022/08/23 14:04:22;;;;;;;;;;;25.10;41.00;;;;;;5030605;28;19929;-60
2022/08/23 14:06:49;;;;;;;;;;;25.10;41.30;;;;;;5026144;28;19975;-59
2022/08/23 14:09:16;;;;;;;;;;;25.10;41.30;;;;;;5026719;28;19921;-59
2022/08/23 14:11:43;;;;;;;;;;;25.10;41.40;;;;;;5027743;28;19921;-60
2022/08/23 14:14:11;;;;;;;;;;;25.10;41.00;;;;;;5030867;28;19967;-59
2022/08/23 14:16:38;;;;;;;;;;;25.20;41.40;;;;;;5029475;28;19967;-59
2022/08/23 14:19:05;;;;;;;;;;;25.20;41.40;;;;;;5029563;28;19968;-59
2022/08/23 14:21:32;;;;;;;;;;;25.10;41.50;;;;;;5027170;28;19971;-58
2022/08/23 14:23:58;;;;;;;;;;;25.10;41.60;;;;;;5027522;28;19948;-61
2022/08/23 14:26:25;;;;;;;;;;;25.20;41.80;;;;;;5039153;28;20061;-61
2022/08/23 14:28:52;;;;;;;;;;;25.20;41.80;;;;;;5025798;28;19987;-62
2022/08/23 14:31:20;;;;;;;;;;;25.20;41.80;;;;;;5027650;28;19921;-62
2022/08/23 14:33:46;;;;;;;;;;;25.20;41.90;;;;;;5057108;28;19931;-63
2022/08/23 14:36:13;;;;;;;;;;;25.20;41.90;;;;;;5024680;28;19952;-62
2022/08/23 14:38:40;;;;;;;;;;;25.20;42.00;;;;;;5028578;28;20007;-62